Flight Track Log - Related Links

Times and Time Zones

All times are in EDT time to prevent confusion due to time zone crossing. See the UAL4236 flight status page for this flight to view local times or setup timezone preferences in your user account.

Time Position Orientation Groundspeed Altitude Reporting Facility
EDT Latitude Longitude Course Direction KTS MPH feet Rate Location/Type
Fri 10:00:30 AM 29.9817 -95.3556 276° West 151 174 800  Level Houston Center
Fri 10:02:08 AM 29.9689 -95.4681 263° West 250 288 3,800 1,412 Climbing Houston Center
Fri 10:03:00 AM 30.0157 -95.6432 279° West  Level FlightAware Approximate
Fri 10:03:03 AM 29.9539 -95.5350 256° West 253 291 4,400  Level Houston Center
Fri 10:03:20 AM 29.9522 -95.5578 265° West 250 288 5,200 2,506 Climbing Houston Center
Fri 10:04:00 AM 30.0275 -95.7469 277° West  Level FlightAware Approximate
Fri 10:04:22 AM 29.9703 -95.6308 286° West 239 275 7,700  Level Houston Center
Fri 10:05:00 AM 30.0376 -95.8508 276° West  Level FlightAware Approximate
Fri 10:05:24 AM 29.9869 -95.7017 285° West 231 266 10,100  Level Houston Center
Fri 10:06:25 AM 30.0047 -95.7783 285° West 248 285 11,300 1,073 Climbing Houston Center
Fri 10:07:27 AM 30.0253 -95.8686 285° West 287 330 12,300 1,016 Climbing Houston Center
Fri 10:08:29 AM 30.0481 -95.9650 285° West 309 356 13,400 1,016 Climbing Houston Center
Fri 10:09:31 AM 30.0728 -96.0717 285° West 325 374 14,400 968 Climbing Houston Center
Fri 10:10:33 AM 30.0889 -96.1767 280° West 333 383 15,400 1,113 Climbing Houston Center
Fri 10:11:35 AM 30.1083 -96.3039 280° West 337 388 16,700 1,161 Climbing Houston Center
Fri 10:12:37 AM 30.1247 -96.4150 280° West 340 391 17,800 968 Climbing Houston Center
Fri 10:13:39 AM 30.1422 -96.5244 281° West 342 394 18,700 1,073 Climbing Houston Center
Fri 10:14:40 AM 30.1581 -96.6344 279° West 344 396 20,000 1,220 Climbing Houston Center
Fri 10:15:42 AM 30.1747 -96.7425 280° West 339 390 21,200 1,161 Climbing Houston Center
Fri 10:16:44 AM 30.1914 -96.8522 280° West 342 394 22,400 1,161 Climbing Houston Center
Fri 10:17:46 AM 30.2081 -96.9606 280° West 337 388 23,600 1,210 Climbing Houston Center
Fri 10:18:48 AM 30.2242 -97.0683 280° West 337 388 24,900 1,210 Climbing Houston Center
Fri 10:19:50 AM 30.2383 -97.1747 279° West 332 382 26,100 1,258 Climbing Houston Center
Fri 10:20:52 AM 30.2575 -97.2953 280° West 324 373 27,500 1,258 Climbing Houston Center
Fri 10:21:54 AM 30.2706 -97.3961 279° West 315 362 28,700 1,161 Climbing Houston Center
Fri 10:22:56 AM 30.2869 -97.4972 281° West 315 362 29,900 1,210 Climbing Houston Center
Fri 10:23:58 AM 30.3014 -97.5981 279° West 318 366 31,200 1,210 Climbing Houston Center
Fri 10:25:00 AM 30.3139 -97.6925 279° West 301 346 32,400 1,161 Climbing Houston Center
Fri 10:26:02 AM 30.3275 -97.7922 279° West 308 354 33,600 1,152 Climbing Houston Center
Fri 10:27:05 AM 30.3419 -97.8881 280° West 302 348 34,800 1,152 Climbing Houston Center
Fri 10:28:07 AM 30.3542 -97.9794 279° West 289 333 36,000 581 Climbing Houston Center
Fri 10:29:09 AM 30.3703 -98.0900 280° West 297 342 36,000  Level Houston Center
Fri 10:30:12 AM 30.3839 -98.1925 279° West 316 364 36,000  Level Houston Center
Fri 10:31:13 AM 30.3992 -98.2997 279° West 331 381 36,000  Level Houston Center
Fri 10:32:15 AM 30.4144 -98.4081 279° West 336 387 36,000  Level Houston Center
Fri 10:33:17 AM 30.4281 -98.5172 278° West 339 390 36,000  Level Houston Center
Fri 10:34:19 AM 30.4433 -98.6258 279° West 338 389 36,000  Level Houston Center
Fri 10:35:21 AM 30.4572 -98.7347 278° West 339 390 36,000  Level Houston Center
Fri 10:36:24 AM 30.4750 -98.8614 279° West 339 390 36,000  Level Houston Center
Fri 10:37:26 AM 30.4889 -98.9700 278° West 339 390 36,000  Level Houston Center
Fri 10:38:28 AM 30.5050 -99.0786 280° West 338 389 36,000  Level Houston Center
Fri 10:39:30 AM 30.5197 -99.1925 279° West 338 389 36,000  Level Houston Center
Fri 10:40:32 AM 30.5344 -99.3000 279° West 339 390 36,000  Level Houston Center
Fri 10:41:34 AM 30.5478 -99.4067 278° West 337 388 36,000  Level Houston Center
Fri 10:42:36 AM 30.5608 -99.5136 278° West 336 387 36,000  Level Houston Center
Fri 10:43:38 AM 30.5753 -99.6214 279° West 338 389 36,000  Level Houston Center
Fri 10:44:40 AM 30.5903 -99.7492 278° West 336 387 36,000  Level Houston Center
Fri 10:45:42 AM 30.6069 -99.8556 280° West 336 387 36,000  Level Houston Center
Fri 10:46:44 AM 30.6292 -99.9622 284° West 341 392 36,000  Level Houston Center
Fri 10:47:46 AM 30.6500 -100.0672 283° West 337 388 36,000  Level Houston Center
Fri 10:48:48 AM 30.6708 -100.1739 283° West 340 391 36,000  Level Houston Center
Fri 10:49:50 AM 30.6972 -100.3008 284° West 338 389 36,000  Level Houston Center
Fri 10:50:52 AM 30.7178 -100.4069 283° West 338 389 36,000  Level Houston Center
Fri 10:51:54 AM 30.7386 -100.5133 283° West 339 390 36,000  Level Houston Center
Fri 10:52:56 AM 30.7597 -100.6189 283° West 338 389 36,000  Level Houston Center
Fri 10:53:58 AM 30.7806 -100.7247 283° West 337 388 36,000  Level Houston Center
Fri 10:55:00 AM 30.8011 -100.8300 283° West 336 387 36,000  Level Houston Center
Fri 10:56:02 AM 30.8256 -100.9586 283° West 339 390 36,000  Level Houston Center
Fri 10:57:04 AM 30.8461 -101.0647 283° West 339 390 36,000  Level Houston Center
Fri 10:58:06 AM 30.8658 -101.1725 282° West 341 392 36,000  Level Houston Center
Fri 10:59:08 AM 30.8886 -101.2786 284° West 340 391 36,000  Level Houston Center
Fri 11:00:10 AM 30.9078 -101.3867 282° West 340 391 36,000  Level Houston Center
Fri 11:01:12 AM 30.9319 -101.5164 282° West 342 394 36,000  Level Houston Center
Fri 11:02:14 AM 30.9533 -101.6233 283° West 342 394 36,000  Level Houston Center
Fri 11:03:16 AM 30.9742 -101.7317 283° West 342 394 36,000  Level Houston Center
Fri 11:04:18 AM 30.9950 -101.8417 282° West 345 397 36,000  Level Houston Center
Fri 11:05:20 AM 31.0131 -101.9514 281° West 345 397 36,000  Level Houston Center
Fri 11:06:22 AM 31.0333 -102.0597 282° West 345 397 36,000  Level Houston Center
Fri 11:07:24 AM 31.0581 -102.1917 282° West 346 398 36,000  Level Houston Center
Fri 11:08:26 AM 31.0797 -102.3008 283° West 347 399 36,000  Level Houston Center
Fri 11:09:28 AM 31.0994 -102.4119 282° West 349 402 36,000  Level Houston Center
Fri 11:10:30 AM 31.1197 -102.5225 282° West 349 402 36,000  Level Houston Center
Fri 11:11:33 AM 31.1397 -102.6361 282° West 352 405 36,000  Level Houston Center
Fri 11:12:35 AM 31.1586 -102.7483 281° West 354 407 36,000  Level Houston Center
Fri 11:13:37 AM 31.1831 -102.8847 282° West 356 410 36,000  Level Houston Center
Fri 11:14:39 AM 31.2019 -102.9992 281° West 358 412 36,000  Level Houston Center
Fri 11:15:41 AM 31.2219 -103.1125 282° West 358 412 36,000  Level Houston Center
Fri 11:16:43 AM 31.2428 -103.2267 282° West 359 413 36,000  Level Houston Center
Fri 11:17:45 AM 31.2625 -103.3417 281° West 360 414 36,000  Level Houston Center
Fri 11:19:01 AM 31.2917 -103.4972 282° West 362 417 36,000  Level Albuquerque Center
Fri 11:20:03 AM 31.3122 -103.6128 282° West 363 418 36,000  Level Albuquerque Center
Fri 11:21:05 AM 31.3328 -103.7286 282° West 365 420 36,000  Level Albuquerque Center
Fri 11:22:07 AM 31.3533 -103.8442 282° West 365 420 36,000  Level Albuquerque Center
Fri 11:23:09 AM 31.3764 -103.9836 281° West 366 421 36,000  Level Albuquerque Center
Fri 11:24:11 AM 31.3961 -104.1000 281° West 366 421 36,000  Level Albuquerque Center
Fri 11:25:13 AM 31.4156 -104.2178 281° West 367 422 36,000  Level Albuquerque Center
Fri 11:26:15 AM 31.4356 -104.3344 281° West 369 425 36,000 -290 Level Albuquerque Center
Fri 11:27:17 AM 31.4547 -104.4511 281° West 368 423 35,400 -1,306 Descending Albuquerque Center
Fri 11:28:19 AM 31.4664 -104.5689 277° West 367 422 33,300 -2,081 Descending Albuquerque Center
Fri 11:29:21 AM 31.4814 -104.7047 277° West 356 410 31,100 -1,839 Descending Albuquerque Center
Fri 11:30:23 AM 31.4917 -104.8228 276° West 361 415 29,500 -1,790 Descending Albuquerque Center
Fri 11:31:25 AM 31.5047 -104.9486 277° West 382 440 27,400 -2,032 Descending Albuquerque Center
Fri 11:32:27 AM 31.5192 -105.0819 277° West 407 468 25,300 -2,129 Descending Albuquerque Center
Fri 11:33:29 AM 31.5325 -105.2156 277° West 416 479 23,000 -2,412 Descending Albuquerque Center
Fri 11:34:04 AM 31.5394 -105.3106 275° West 407 468 21,400 -2,419 Descending Albuquerque Center
Fri 11:34:31 AM 31.5461 -105.3681 278° West 398 458 20,500 -1,955 Descending Albuquerque Center
Fri 11:35:33 AM 31.5592 -105.4956 277° West 397 457 18,500 -2,032 Descending Albuquerque Center
Fri 11:36:35 AM 31.5703 -105.6189 276° West 383 441 16,300 -2,177 Descending Albuquerque Center
Fri 11:37:37 AM 31.5831 -105.7378 277° West 372 428 14,000 -1,984 Descending Albuquerque Center
Fri 11:38:39 AM 31.6108 -105.8450 287° West 350 403 12,200 -1,680 Descending Albuquerque Center
Fri 11:39:42 AM 31.6628 -105.9469 301° West 297 342 10,500 -1,824 Descending Albuquerque Center
Fri 11:40:44 AM 31.7000 -106.0250 299° West 277 319 8,400 -1,306 Descending Albuquerque Center
Fri 11:41:46 AM 31.7344 -106.0931 301° West 243 280 7,800 -871 Descending Albuquerque Center
Fri 11:42:48 AM 31.7572 -106.1650 290° West 236 272 6,600 -1,161 Descending Albuquerque Center

Login

Don't have an account? Register now (free) for customized features, flight alerts, and more!